sensor_id;sensor_type;location;lat;lon;timestamp;pressure;altitude;pressure_sealevel;temperature;humidity
6218;BME280;3142;48.206;11.550;2023-01-30T00:01:00;96346.97;;;-0.06;72.93
6218;BME280;3142;48.206;11.550;2023-01-30T00:03:27;96339.63;;;-0.11;72.15
6218;BME280;3142;48.206;11.550;2023-01-30T00:05:54;96343.34;;;-0.15;72.75
6218;BME280;3142;48.206;11.550;2023-01-30T00:08:20;96331.53;;;-0.17;72.77
6218;BME280;3142;48.206;11.550;2023-01-30T00:10:48;96330.72;;;-0.18;72.80
6218;BME280;3142;48.206;11.550;2023-01-30T00:13:15;96332.34;;;-0.17;72.86
6218;BME280;3142;48.206;11.550;2023-01-30T00:15:43;96325.59;;;-0.18;72.90
6218;BME280;3142;48.206;11.550;2023-01-30T00:18:09;96328.28;;;-0.19;73.40
6218;BME280;3142;48.206;11.550;2023-01-30T00:20:36;96327.34;;;-0.18;72.29
6218;BME280;3142;48.206;11.550;2023-01-30T00:23:03;96320.44;;;-0.18;72.38
6218;BME280;3142;48.206;11.550;2023-01-30T00:25:29;96314.47;;;-0.18;72.88
6218;BME280;3142;48.206;11.550;2023-01-30T00:27:58;96316.22;;;-0.19;72.90
6218;BME280;3142;48.206;11.550;2023-01-30T00:30:24;96309.81;;;-0.24;73.53
6218;BME280;3142;48.206;11.550;2023-01-30T00:32:54;96301.63;;;-0.30;72.77
6218;BME280;3142;48.206;11.550;2023-01-30T00:35:20;96303.06;;;-0.37;72.76
6218;BME280;3142;48.206;11.550;2023-01-30T00:37:53;96300.59;;;-0.38;73.37
6218;BME280;3142;48.206;11.550;2023-01-30T00:40:19;96294.53;;;-0.37;73.63
6218;BME280;3142;48.206;11.550;2023-01-30T00:42:46;96288.44;;;-0.36;73.00
6218;BME280;3142;48.206;11.550;2023-01-30T00:45:30;96286.34;;;-0.42;73.54
6218;BME280;3142;48.206;11.550;2023-01-30T00:48:17;96278.75;;;-0.44;73.75
6218;BME280;3142;48.206;11.550;2023-01-30T00:50:44;96276.06;;;-0.42;73.52
6218;BME280;3142;48.206;11.550;2023-01-30T00:53:11;96277.13;;;-0.45;73.59
6218;BME280;3142;48.206;11.550;2023-01-30T00:55:38;96277.13;;;-0.45;73.78
6218;BME280;3142;48.206;11.550;2023-01-30T00:58:05;96269.41;;;-0.45;73.45
6218;BME280;3142;48.206;11.550;2023-01-30T01:00:32;96261.81;;;-0.46;73.65
6218;BME280;3142;48.206;11.550;2023-01-30T01:02:58;96256.22;;;-0.51;73.51
6218;BME280;3142;48.206;11.550;2023-01-30T01:05:27;96261.13;;;-0.60;74.28
6218;BME280;3142;48.206;11.550;2023-01-30T01:07:53;96254.94;;;-0.57;73.89
6218;BME280;3142;48.206;11.550;2023-01-30T01:10:21;96261.94;;;-0.59;74.17
6218;BME280;3142;48.206;11.550;2023-01-30T01:12:48;96264.38;;;-0.57;73.77
6218;BME280;3142;48.206;11.550;2023-01-30T01:15:17;96258.91;;;-0.64;73.62
6218;BME280;3142;48.206;11.550;2023-01-30T01:17:43;96260.66;;;-0.65;73.96
6218;BME280;3142;48.206;11.550;2023-01-30T01:20:10;96257.28;;;-0.65;74.73
6218;BME280;3142;48.206;11.550;2023-01-30T01:22:38;96261.59;;;-0.66;74.12
6218;BME280;3142;48.206;11.550;2023-01-30T01:25:06;96252.25;;;-0.67;74.01
6218;BME280;3142;48.206;11.550;2023-01-30T01:27:32;96257.41;;;-0.67;74.41
6218;BME280;3142;48.206;11.550;2023-01-30T01:29:59;96258.56;;;-0.60;74.35
6218;BME280;3142;48.206;11.550;2023-01-30T01:32:25;96250.47;;;-0.55;74.30
6218;BME280;3142;48.206;11.550;2023-01-30T01:34:52;96250.28;;;-0.52;73.96
6218;BME280;3142;48.206;11.550;2023-01-30T01:37:18;96261.47;;;-0.53;74.31
6218;BME280;3142;48.206;11.550;2023-01-30T01:39:46;96251.09;;;-0.51;73.99
6218;BME280;3142;48.206;11.550;2023-01-30T01:42:33;96252.47;;;-0.47;74.24
6218;BME280;3142;48.206;11.550;2023-01-30T01:45:13;96243.00;;;-0.47;74.07
6218;BME280;3142;48.206;11.550;2023-01-30T01:47:45;96240.94;;;-0.53;74.21
6218;BME280;3142;48.206;11.550;2023-01-30T01:50:17;96222.69;;;-0.50;73.90
6218;BME280;3142;48.206;11.550;2023-01-30T01:52:45;96232.50;;;-0.55;74.05
6218;BME280;3142;48.206;11.550;2023-01-30T01:55:15;96227.34;;;-0.55;74.14
6218;BME280;3142;48.206;11.550;2023-01-30T01:57:45;96224.91;;;-0.56;74.20
6218;BME280;3142;48.206;11.550;2023-01-30T02:00:15;96222.47;;;-0.58;74.10
6218;BME280;3142;48.206;11.550;2023-01-30T02:02:46;96230.97;;;-0.57;73.58
6218;BME280;3142;48.206;11.550;2023-01-30T02:05:15;96241.50;;;-0.61;74.12
6218;BME280;3142;48.206;11.550;2023-01-30T02:07:46;96243.38;;;-0.63;74.32
6218;BME280;3142;48.206;11.550;2023-01-30T02:10:19;96241.50;;;-0.61;73.97
6218;BME280;3142;48.206;11.550;2023-01-30T02:12:46;96242.31;;;-0.60;73.67
6218;BME280;3142;48.206;11.550;2023-01-30T02:15:14;96242.31;;;-0.60;73.88
6218;BME280;3142;48.206;11.550;2023-01-30T02:17:40;96244.78;;;-0.58;74.15
6218;BME280;3142;48.206;11.550;2023-01-30T02:20:15;96252.47;;;-0.58;74.33
6218;BME280;3142;48.206;11.550;2023-01-30T02:26:03;96247.56;;;-0.62;73.52
6218;BME280;3142;48.206;11.550;2023-01-30T02:29:00;96252.59;;;-0.60;73.99
6218;BME280;3142;48.206;11.550;2023-01-30T02:31:34;96247.56;;;-0.62;73.41
6218;BME280;3142;48.206;11.550;2023-01-30T02:34:13;96241.16;;;-0.67;73.68
6218;BME280;3142;48.206;11.550;2023-01-30T02:36:51;96240.22;;;-0.66;73.88
6218;BME280;3142;48.206;11.550;2023-01-30T02:39:31;96239.53;;;-0.68;73.94
6218;BME280;3142;48.206;11.550;2023-01-30T02:42:07;96242.09;;;-0.68;73.93
6218;BME280;3142;48.206;11.550;2023-01-30T02:44:43;96248.97;;;-0.69;73.76
6218;BME280;3142;48.206;11.550;2023-01-30T02:47:14;96246.31;;;-0.67;73.99
6218;BME280;3142;48.206;11.550;2023-01-30T02:49:46;96246.31;;;-0.67;73.98
6218;BME280;3142;48.206;11.550;2023-01-30T02:52:14;96242.19;;;-0.70;74.23
6218;BME280;3142;48.206;11.550;2023-01-30T02:54:41;96246.88;;;-0.75;73.89
6218;BME280;3142;48.206;11.550;2023-01-30T02:57:16;96256.47;;;-0.77;74.34
6218;BME280;3142;48.206;11.550;2023-01-30T02:59:46;96257.97;;;-0.74;74.27
6218;BME280;3142;48.206;11.550;2023-01-30T03:05:25;96256.56;;;-0.78;74.22
6218;BME280;3142;48.206;11.550;2023-01-30T03:08:03;96258.91;;;-0.75;74.32
6218;BME280;3142;48.206;11.550;2023-01-30T03:10:37;96269.28;;;-0.77;74.46
6218;BME280;3142;48.206;11.550;2023-01-30T03:13:10;96258.09;;;-0.76;74.22
6218;BME280;3142;48.206;11.550;2023-01-30T03:15:44;96247.94;;;-0.77;74.20
6218;BME280;3142;48.206;11.550;2023-01-30T03:18:15;96245.50;;;-0.79;74.22
6218;BME280;3142;48.206;11.550;2023-01-30T03:20:42;96236.28;;;-0.81;73.79
6218;BME280;3142;48.206;11.550;2023-01-30T03:23:09;96224.34;;;-0.82;73.89
6218;BME280;3142;48.206;11.550;2023-01-30T03:25:37;96217.09;;;-0.88;74.50
6218;BME280;3142;48.206;11.550;2023-01-30T03:28:05;96220.16;;;-0.95;74.71
6218;BME280;3142;48.206;11.550;2023-01-30T03:30:32;96227.38;;;-1.00;74.45
6218;BME280;3142;48.206;11.550;2023-01-30T03:32:58;96232.97;;;-1.06;74.86
6218;BME280;3142;48.206;11.550;2023-01-30T03:35:26;96228.66;;;-1.05;75.05
6218;BME280;3142;48.206;11.550;2023-01-30T03:37:54;96222.94;;;-1.09;74.96
6218;BME280;3142;48.206;11.550;2023-01-30T03:40:20;96209.19;;;-1.08;74.83
6218;BME280;3142;48.206;11.550;2023-01-30T03:42:47;96213.69;;;-1.11;74.91
6218;BME280;3142;48.206;11.550;2023-01-30T03:45:14;96203.31;;;-1.10;75.58
6218;BME280;3142;48.206;11.550;2023-01-30T03:47:40;96225.59;;;-1.10;75.66
6218;BME280;3142;48.206;11.550;2023-01-30T03:50:08;96215.00;;;-1.06;75.35
6218;BME280;3142;48.206;11.550;2023-01-30T03:52:36;96212.19;;;-1.03;75.09
6218;BME280;3142;48.206;11.550;2023-01-30T03:55:03;96215.34;;;-0.99;75.72
6218;BME280;3142;48.206;11.550;2023-01-30T03:57:30;96215.47;;;-1.01;74.81
6218;BME280;3142;48.206;11.550;2023-01-30T03:59:56;96198.19;;;-0.99;75.62
6218;BME280;3142;48.206;11.550;2023-01-30T04:02:23;96205.78;;;-0.97;75.29
6218;BME280;3142;48.206;11.550;2023-01-30T04:04:50;96206.59;;;-0.97;75.12
6218;BME280;3142;48.206;11.550;2023-01-30T04:07:16;96210.09;;;-0.98;75.10
6218;BME280;3142;48.206;11.550;2023-01-30T04:09:44;96208.59;;;-0.89;75.30
6218;BME280;3142;48.206;11.550;2023-01-30T04:12:11;96222.81;;;-0.85;74.84
6218;BME280;3142;48.206;11.550;2023-01-30T04:14:38;96223.53;;;-0.83;75.10
6218;BME280;3142;48.206;11.550;2023-01-30T04:17:04;96223.53;;;-0.83;74.86
6218;BME280;3142;48.206;11.550;2023-01-30T04:19:31;96215.00;;;-0.83;74.57
6218;BME280;3142;48.206;11.550;2023-01-30T04:21:57;96219.81;;;-0.79;74.43
6218;BME280;3142;48.206;11.550;2023-01-30T04:24:24;96219.56;;;-0.76;74.84
6218;BME280;3142;48.206;11.550;2023-01-30T04:26:51;96212.66;;;-0.75;74.71
6218;BME280;3142;48.206;11.550;2023-01-30T04:29:18;96200.41;;;-0.72;74.66
6218;BME280;3142;48.206;11.550;2023-01-30T04:31:44;96207.78;;;-0.67;74.82
6218;BME280;3142;48.206;11.550;2023-01-30T04:34:11;96216.19;;;-0.65;74.61
6218;BME280;3142;48.206;11.550;2023-01-30T04:36:37;96208.94;;;-0.60;73.88
6218;BME280;3142;48.206;11.550;2023-01-30T04:39:04;96202.97;;;-0.61;74.11
6218;BME280;3142;48.206;11.550;2023-01-30T04:41:30;96180.66;;;-0.60;74.33
6218;BME280;3142;48.206;11.550;2023-01-30T04:43:58;96180.22;;;-0.65;74.08
6218;BME280;3142;48.206;11.550;2023-01-30T04:46:24;96165.38;;;-0.62;74.15
6218;BME280;3142;48.206;11.550;2023-01-30T04:48:51;96158.72;;;-0.64;74.28
6218;BME280;3142;48.206;11.550;2023-01-30T04:51:17;96154.41;;;-0.64;74.22
6218;BME280;3142;48.206;11.550;2023-01-30T04:53:44;96160.47;;;-0.65;74.19
6218;BME280;3142;48.206;11.550;2023-01-30T04:56:10;96173.56;;;-0.68;73.96
6218;BME280;3142;48.206;11.550;2023-01-30T04:58:36;96166.56;;;-0.66;73.91
6218;BME280;3142;48.206;11.550;2023-01-30T05:01:18;96170.63;;;-0.63;73.82
6218;BME280;3142;48.206;11.550;2023-01-30T05:03:48;96163.38;;;-0.69;74.68
6218;BME280;3142;48.206;11.550;2023-01-30T05:06:15;96164.13;;;-0.67;73.87
6218;BME280;3142;48.206;11.550;2023-01-30T05:08:41;96153.94;;;-0.69;73.95
6218;BME280;3142;48.206;11.550;2023-01-30T05:11:07;96132.56;;;-0.69;73.70
6218;BME280;3142;48.206;11.550;2023-01-30T05:13:34;96139.56;;;-0.71;74.42
6218;BME280;3142;48.206;11.550;2023-01-30T05:16:00;96140.63;;;-0.74;74.30
6218;BME280;3142;48.206;11.550;2023-01-30T05:18:28;96131.31;;;-0.75;74.40
6218;BME280;3142;48.206;11.550;2023-01-30T05:21:02;96145.91;;;-0.75;74.64
6218;BME280;3142;48.206;11.550;2023-01-30T05:23:29;96150.66;;;-0.71;74.50
6218;BME280;3142;48.206;11.550;2023-01-30T05:25:55;96142.97;;;-0.71;74.53
6218;BME280;3142;48.206;11.550;2023-01-30T05:28:22;96138.44;;;-0.67;74.67
6218;BME280;3142;48.206;11.550;2023-01-30T05:30:48;96148.22;;;-0.61;74.06
6218;BME280;3142;48.206;11.550;2023-01-30T05:33:15;96146.13;;;-0.67;73.99
6218;BME280;3142;48.206;11.550;2023-01-30T05:35:46;96139.38;;;-0.68;74.51
6218;BME280;3142;48.206;11.550;2023-01-30T05:38:13;96141.81;;;-0.67;74.14
6218;BME280;3142;48.206;11.550;2023-01-30T05:40:39;96141.69;;;-0.65;74.19
6218;BME280;3142;48.206;11.550;2023-01-30T05:43:06;96133.59;;;-0.61;74.29
6218;BME280;3142;48.206;11.550;2023-01-30T05:45:34;96135.38;;;-0.61;74.18
6218;BME280;3142;48.206;11.550;2023-01-30T05:48:00;96136.19;;;-0.61;74.56
6218;BME280;3142;48.206;11.550;2023-01-30T05:50:27;96126.34;;;-0.55;74.59
6218;BME280;3142;48.206;11.550;2023-01-30T05:52:54;96128.22;;;-0.57;74.05
6218;BME280;3142;48.206;11.550;2023-01-30T05:55:21;96135.81;;;-0.56;73.95
6218;BME280;3142;48.206;11.550;2023-01-30T05:57:48;96122.75;;;-0.53;73.70
6218;BME280;3142;48.206;11.550;2023-01-30T06:00:15;96112.34;;;-0.51;74.26
6218;BME280;3142;48.206;11.550;2023-01-30T06:02:41;96128.69;;;-0.52;73.75
6218;BME280;3142;48.206;11.550;2023-01-30T06:05:08;96132.28;;;-0.55;73.83
6218;BME280;3142;48.206;11.550;2023-01-30T06:07:34;96126.00;;;-0.51;73.56
6218;BME280;3142;48.206;11.550;2023-01-30T06:10:02;96123.44;;;-0.51;74.02
6218;BME280;3142;48.206;11.550;2023-01-30T06:12:29;96125.88;;;-0.49;73.90
6218;BME280;3142;48.206;11.550;2023-01-30T06:14:55;96118.84;;;-0.47;73.91
6218;BME280;3142;48.206;11.550;2023-01-30T06:17:22;96117.78;;;-0.45;73.71
6218;BME280;3142;48.206;11.550;2023-01-30T06:19:48;96111.16;;;-0.47;73.23
6218;BME280;3142;48.206;11.550;2023-01-30T06:22:15;96122.13;;;-0.45;73.56
6218;BME280;3142;48.206;11.550;2023-01-30T06:24:41;96144.19;;;-0.43;74.06
6218;BME280;3142;48.206;11.550;2023-01-30T06:27:09;96135.31;;;-0.39;73.28
6218;BME280;3142;48.206;11.550;2023-01-30T06:29:35;96132.25;;;-0.33;73.50
6218;BME280;3142;48.206;11.550;2023-01-30T06:32:02;96121.03;;;-0.32;73.35
6218;BME280;3142;48.206;11.550;2023-01-30T06:34:28;96133.06;;;-0.32;73.03
6218;BME280;3142;48.206;11.550;2023-01-30T06:36:55;96139.25;;;-0.35;73.20
6218;BME280;3142;48.206;11.550;2023-01-30T06:39:21;96136.56;;;-0.33;72.93
6218;BME280;3142;48.206;11.550;2023-01-30T06:41:47;96141.47;;;-0.30;72.83
6218;BME280;3142;48.206;11.550;2023-01-30T06:44:15;96136.69;;;-0.35;73.12
6218;BME280;3142;48.206;11.550;2023-01-30T06:46:42;96140.66;;;-0.31;72.86
6218;BME280;3142;48.206;11.550;2023-01-30T06:49:08;96141.25;;;-0.27;72.61
6218;BME280;3142;48.206;11.550;2023-01-30T06:51:35;96139.22;;;-0.23;72.86
6218;BME280;3142;48.206;11.550;2023-01-30T06:54:01;96142.38;;;-0.20;72.87
6218;BME280;3142;48.206;11.550;2023-01-30T06:56:28;96144.56;;;-0.15;72.21
6218;BME280;3142;48.206;11.550;2023-01-30T06:58:54;96130.75;;;-0.14;72.37
6218;BME280;3142;48.206;11.550;2023-01-30T07:01:22;96140.00;;;-0.12;72.64
6218;BME280;3142;48.206;11.550;2023-01-30T07:03:48;96143.97;;;-0.08;72.50
6218;BME280;3142;48.206;11.550;2023-01-30T07:06:15;96139.50;;;-0.06;71.49
6218;BME280;3142;48.206;11.550;2023-01-30T07:08:41;96140.88;;;-0.02;72.03
6218;BME280;3142;48.206;11.550;2023-01-30T07:11:08;96139.59;;;0.04;71.92
6218;BME280;3142;48.206;11.550;2023-01-30T07:13:35;96142.03;;;0.06;71.06
6218;BME280;3142;48.206;11.550;2023-01-30T07:16:01;96141.09;;;0.07;71.27
6218;BME280;3142;48.206;11.550;2023-01-30T07:18:29;96155.31;;;0.11;71.00
6218;BME280;3142;48.206;11.550;2023-01-30T07:20:55;96146.66;;;0.12;70.61
6218;BME280;3142;48.206;11.550;2023-01-30T07:23:22;96151.59;;;0.15;70.69
6218;BME280;3142;48.206;11.550;2023-01-30T07:25:48;96136.03;;;0.16;70.72
6218;BME280;3142;48.206;11.550;2023-01-30T07:28:14;96137.41;;;0.20;69.91
6218;BME280;3142;48.206;11.550;2023-01-30T07:30:41;96124.53;;;0.20;70.08
6218;BME280;3142;48.206;11.550;2023-01-30T07:33:07;96129.16;;;0.26;70.02
6218;BME280;3142;48.206;11.550;2023-01-30T07:35:36;96127.59;;;0.35;69.95
6218;BME280;3142;48.206;11.550;2023-01-30T07:38:03;96133.56;;;0.36;69.14
6218;BME280;3142;48.206;11.550;2023-01-30T07:40:30;96125.22;;;0.43;68.72
6218;BME280;3142;48.206;11.550;2023-01-30T07:42:58;96123.34;;;0.45;68.41
6218;BME280;3142;48.206;11.550;2023-01-30T07:45:29;96115.34;;;0.48;68.30
6218;BME280;3142;48.206;11.550;2023-01-30T07:47:56;96118.53;;;0.62;67.33
6218;BME280;3142;48.206;11.550;2023-01-30T07:50:22;96116.97;;;0.70;67.21
6218;BME280;3142;48.206;11.550;2023-01-30T07:52:50;96097.59;;;0.76;67.08
6218;BME280;3142;48.206;11.550;2023-01-30T07:55:17;96094.75;;;0.79;66.74
6218;BME280;3142;48.206;11.550;2023-01-30T07:57:43;96098.75;;;0.93;65.32
6218;BME280;3142;48.206;11.550;2023-01-30T08:00:11;96079.50;;;1.66;63.46
6218;BME280;3142;48.206;11.550;2023-01-30T08:02:37;96085.59;;;1.94;61.80
6218;BME280;3142;48.206;11.550;2023-01-30T08:05:04;96081.25;;;1.75;62.48
6218;BME280;3142;48.206;11.550;2023-01-30T08:07:31;96071.47;;;1.59;62.28
6218;BME280;3142;48.206;11.550;2023-01-30T08:09:59;96078.38;;;1.49;63.03
6218;BME280;3142;48.206;11.550;2023-01-30T08:12:25;96073.66;;;1.44;63.19
6218;BME280;3142;48.206;11.550;2023-01-30T08:14:53;96076.38;;;1.43;63.04
6218;BME280;3142;48.206;11.550;2023-01-30T08:17:19;96088.84;;;1.38;62.97
6218;BME280;3142;48.206;11.550;2023-01-30T08:19:46;96075.81;;;1.49;63.03
6218;BME280;3142;48.206;11.550;2023-01-30T08:22:12;96091.81;;;1.43;63.23
6218;BME280;3142;48.206;11.550;2023-01-30T08:24:39;96075.97;;;1.38;63.24
6218;BME280;3142;48.206;11.550;2023-01-30T08:27:06;96073.38;;;1.38;63.02
6218;BME280;3142;48.206;11.550;2023-01-30T08:29:33;96077.56;;;1.29;63.56
6218;BME280;3142;48.206;11.550;2023-01-30T08:32:00;96087.19;;;1.27;63.94
6218;BME280;3142;48.206;11.550;2023-01-30T08:34:26;96062.50;;;1.25;63.92
6218;BME280;3142;48.206;11.550;2023-01-30T08:36:53;96042.41;;;1.18;64.58
6218;BME280;3142;48.206;11.550;2023-01-30T08:39:19;96068.72;;;1.22;64.66
6218;BME280;3142;48.206;11.550;2023-01-30T08:41:45;96047.25;;;2.18;62.61
6218;BME280;3142;48.206;11.550;2023-01-30T08:44:13;96052.75;;;2.89;59.79
6218;BME280;3142;48.206;11.550;2023-01-30T08:46:40;96057.06;;;3.44;58.49
6218;BME280;3142;48.206;11.550;2023-01-30T08:49:06;96058.66;;;3.63;58.30
6218;BME280;3142;48.206;11.550;2023-01-30T08:51:32;96053.59;;;3.71;57.74
6218;BME280;3142;48.206;11.550;2023-01-30T08:53:59;96050.19;;;4.14;56.53
6218;BME280;3142;48.206;11.550;2023-01-30T08:56:25;96038.09;;;4.49;55.56
6218;BME280;3142;48.206;11.550;2023-01-30T08:58:52;96041.22;;;4.86;54.39
6218;BME280;3142;48.206;11.550;2023-01-30T09:01:19;96028.41;;;4.25;55.65
6218;BME280;3142;48.206;11.550;2023-01-30T09:03:46;96019.69;;;4.00;56.50
6218;BME280;3142;48.206;11.550;2023-01-30T09:06:13;96027.91;;;4.21;56.43
6218;BME280;3142;48.206;11.550;2023-01-30T09:08:39;96026.03;;;4.65;54.73
6218;BME280;3142;48.206;11.550;2023-01-30T09:11:06;96025.84;;;4.93;54.21
6218;BME280;3142;48.206;11.550;2023-01-30T09:13:33;96015.88;;;5.14;53.76
6218;BME280;3142;48.206;11.550;2023-01-30T09:15:59;96001.78;;;5.25;52.84
6218;BME280;3142;48.206;11.550;2023-01-30T09:18:27;96009.09;;;5.29;52.60
6218;BME280;3142;48.206;11.550;2023-01-30T09:21:01;96012.16;;;5.33;51.91
6218;BME280;3142;48.206;11.550;2023-01-30T09:23:28;95994.69;;;5.43;51.98
6218;BME280;3142;48.206;11.550;2023-01-30T09:25:54;96008.50;;;5.52;51.84
6218;BME280;3142;48.206;11.550;2023-01-30T09:28:21;96019.19;;;5.57;51.24
6218;BME280;3142;48.206;11.550;2023-01-30T09:30:47;96026.16;;;5.48;51.21
6218;BME280;3142;48.206;11.550;2023-01-30T09:33:14;96047.78;;;5.15;52.15
6218;BME280;3142;48.206;11.550;2023-01-30T09:35:47;96039.81;;;4.66;53.19
6218;BME280;3142;48.206;11.550;2023-01-30T09:38:14;96032.53;;;4.35;53.56
6218;BME280;3142;48.206;11.550;2023-01-30T09:40:49;96046.72;;;4.05;52.93
6218;BME280;3142;48.206;11.550;2023-01-30T09:43:35;96014.25;;;3.85;53.35
6218;BME280;3142;48.206;11.550;2023-01-30T09:46:16;96017.13;;;3.64;53.67
6218;BME280;3142;48.206;11.550;2023-01-30T09:48:54;96003.75;;;3.51;54.12
6218;BME280;3142;48.206;11.550;2023-01-30T09:51:32;95992.59;;;3.50;53.79
6218;BME280;3142;48.206;11.550;2023-01-30T09:54:13;96011.22;;;3.54;54.66
6218;BME280;3142;48.206;11.550;2023-01-30T09:56:41;95993.22;;;3.44;53.76
6218;BME280;3142;48.206;11.550;2023-01-30T09:59:16;95996.41;;;4.00;53.30
6218;BME280;3142;48.206;11.550;2023-01-30T10:01:49;95990.41;;;4.25;52.65
6218;BME280;3142;48.206;11.550;2023-01-30T10:04:23;95997.59;;;4.39;52.97
6218;BME280;3142;48.206;11.550;2023-01-30T10:06:58;95992.03;;;4.60;53.31
6218;BME280;3142;48.206;11.550;2023-01-30T10:09:33;96009.09;;;5.21;51.56
6218;BME280;3142;48.206;11.550;2023-01-30T10:12:18;96010.13;;;5.69;50.70
6218;BME280;3142;48.206;11.550;2023-01-30T10:15:00;95982.72;;;5.99;49.80
6218;BME280;3142;48.206;11.550;2023-01-30T10:17:43;95976.38;;;6.18;49.80
6218;BME280;3142;48.206;11.550;2023-01-30T10:20:26;95967.22;;;6.38;49.50
6218;BME280;3142;48.206;11.550;2023-01-30T10:23:07;95963.13;;;6.52;49.31
6218;BME280;3142;48.206;11.550;2023-01-30T10:25:40;95954.25;;;6.69;49.59
6218;BME280;3142;48.206;11.550;2023-01-30T10:28:11;95950.31;;;6.81;49.65
6218;BME280;3142;48.206;11.550;2023-01-30T10:30:43;95925.38;;;6.95;49.69
6218;BME280;3142;48.206;11.550;2023-01-30T10:33:16;95911.97;;;7.06;49.68
6218;BME280;3142;48.206;11.550;2023-01-30T10:35:44;95913.25;;;7.10;49.64
6218;BME280;3142;48.206;11.550;2023-01-30T10:38:20;95919.84;;;7.21;50.14
6218;BME280;3142;48.206;11.550;2023-01-30T10:40:51;95942.75;;;7.49;49.18
6218;BME280;3142;48.206;11.550;2023-01-30T10:43:25;95927.72;;;7.13;50.88
6218;BME280;3142;48.206;11.550;2023-01-30T10:45:57;95931.38;;;6.65;51.47
6218;BME280;3142;48.206;11.550;2023-01-30T10:48:46;95929.16;;;6.06;53.19
6218;BME280;3142;48.206;11.550;2023-01-30T10:51:22;95933.72;;;5.72;54.42
6218;BME280;3142;48.206;11.550;2023-01-30T10:53:55;95924.47;;;5.53;55.70
6218;BME280;3142;48.206;11.550;2023-01-30T10:56:29;95935.66;;;5.70;55.27
6218;BME280;3142;48.206;11.550;2023-01-30T10:59:06;95945.38;;;5.84;54.87
6218;BME280;3142;48.206;11.550;2023-01-30T11:01:39;95934.22;;;5.67;55.88
6218;BME280;3142;48.206;11.550;2023-01-30T11:04:14;95919.78;;;5.48;56.32
6218;BME280;3142;48.206;11.550;2023-01-30T11:06:45;95925.44;;;5.27;56.43
6218;BME280;3142;48.206;11.550;2023-01-30T11:09:12;95928.97;;;5.02;56.94
6218;BME280;3142;48.206;11.550;2023-01-30T11:11:47;95922.81;;;4.95;57.21
6218;BME280;3142;48.206;11.550;2023-01-30T11:14:14;95901.06;;;4.80;58.07
6218;BME280;3142;48.206;11.550;2023-01-30T11:16:42;95931.50;;;4.69;58.34
6218;BME280;3142;48.206;11.550;2023-01-30T11:19:09;95896.81;;;4.54;58.19
6218;BME280;3142;48.206;11.550;2023-01-30T11:21:37;95895.84;;;4.55;58.62
6218;BME280;3142;48.206;11.550;2023-01-30T11:24:14;95893.56;;;4.60;59.24
6218;BME280;3142;48.206;11.550;2023-01-30T11:26:42;95880.47;;;4.62;58.66
6218;BME280;3142;48.206;11.550;2023-01-30T11:29:30;95853.59;;;4.79;58.27
6218;BME280;3142;48.206;11.550;2023-01-30T11:32:00;95859.94;;;4.85;58.59
6218;BME280;3142;48.206;11.550;2023-01-30T11:34:27;95858.13;;;4.77;58.55
6218;BME280;3142;48.206;11.550;2023-01-30T11:37:11;95869.97;;;4.88;58.81
6218;BME280;3142;48.206;11.550;2023-01-30T11:39:47;95859.94;;;5.01;58.50
6218;BME280;3142;48.206;11.550;2023-01-30T11:42:13;95856.22;;;5.03;58.87
6218;BME280;3142;48.206;11.550;2023-01-30T11:44:43;95849.91;;;4.98;58.59
6218;BME280;3142;48.206;11.550;2023-01-30T11:47:20;95850.38;;;4.93;59.40
6218;BME280;3142;48.206;11.550;2023-01-30T11:49:49;95851.03;;;4.95;59.64
6218;BME280;3142;48.206;11.550;2023-01-30T11:52:19;95834.97;;;4.92;59.61
6218;BME280;3142;48.206;11.550;2023-01-30T11:54:51;95846.00;;;4.86;60.34
6218;BME280;3142;48.206;11.550;2023-01-30T11:57:19;95837.09;;;4.80;60.19
6218;BME280;3142;48.206;11.550;2023-01-30T11:59:48;95830.44;;;4.78;61.21
6218;BME280;3142;48.206;11.550;2023-01-30T12:02:24;95837.72;;;4.74;61.31
6218;BME280;3142;48.206;11.550;2023-01-30T12:04:55;95833.19;;;4.68;61.30
6218;BME280;3142;48.206;11.550;2023-01-30T12:07:24;95832.84;;;4.63;61.62
6218;BME280;3142;48.206;11.550;2023-01-30T12:09:54;95816.19;;;4.57;62.33
6218;BME280;3142;48.206;11.550;2023-01-30T12:12:30;95829.44;;;4.54;62.37
6218;BME280;3142;48.206;11.550;2023-01-30T12:15:13;95815.81;;;4.52;62.15
6218;BME280;3142;48.206;11.550;2023-01-30T12:17:49;95821.97;;;4.51;62.12
6218;BME280;3142;48.206;11.550;2023-01-30T12:20:24;95813.41;;;4.51;62.88
6218;BME280;3142;48.206;11.550;2023-01-30T12:23:00;95804.66;;;4.52;62.30
6218;BME280;3142;48.206;11.550;2023-01-30T12:25:35;95794.28;;;4.52;62.78
6218;BME280;3142;48.206;11.550;2023-01-30T12:28:11;95801.75;;;4.46;62.55
6218;BME280;3142;48.206;11.550;2023-01-30T12:30:43;95807.72;;;4.47;62.49
6218;BME280;3142;48.206;11.550;2023-01-30T12:33:13;95807.41;;;4.50;62.51
6218;BME280;3142;48.206;11.550;2023-01-30T12:35:48;95794.78;;;4.47;63.13
6218;BME280;3142;48.206;11.550;2023-01-30T12:38:27;95781.81;;;4.47;63.11
6218;BME280;3142;48.206;11.550;2023-01-30T12:41:06;95807.41;;;4.42;63.66
6218;BME280;3142;48.206;11.550;2023-01-30T12:43:49;95776.16;;;4.43;63.57
6218;BME280;3142;48.206;11.550;2023-01-30T12:46:33;95773.56;;;4.43;63.41
6218;BME280;3142;48.206;11.550;2023-01-30T12:49:26;95762.25;;;4.44;63.61
6218;BME280;3142;48.206;11.550;2023-01-30T12:52:20;95760.94;;;4.49;63.65
6218;BME280;3142;48.206;11.550;2023-01-30T12:54:56;95768.38;;;4.52;63.74
6218;BME280;3142;48.206;11.550;2023-01-30T12:57:33;95778.44;;;4.55;63.54
6218;BME280;3142;48.206;11.550;2023-01-30T13:00:14;95787.19;;;4.54;63.82
6218;BME280;3142;48.206;11.550;2023-01-30T13:02:54;95796.75;;;4.53;63.99
6218;BME280;3142;48.206;11.550;2023-01-30T13:05:32;95798.69;;;4.59;64.34
6218;BME280;3142;48.206;11.550;2023-01-30T13:08:19;95790.91;;;4.59;64.30
6218;BME280;3142;48.206;11.550;2023-01-30T13:10:51;95785.09;;;4.57;64.22
6218;BME280;3142;48.206;11.550;2023-01-30T13:13:28;95785.41;;;4.62;64.79
6218;BME280;3142;48.206;11.550;2023-01-30T13:16:01;95790.41;;;4.64;65.15
6218;BME280;3142;48.206;11.550;2023-01-30T13:18:33;95786.56;;;4.68;64.82
6218;BME280;3142;48.206;11.550;2023-01-30T13:21:07;95803.53;;;4.62;64.82
6218;BME280;3142;48.206;11.550;2023-01-30T13:23:43;95803.22;;;4.65;64.88
6218;BME280;3142;48.206;11.550;2023-01-30T13:26:17;95797.38;;;4.63;65.03
6218;BME280;3142;48.206;11.550;2023-01-30T13:28:48;95797.91;;;4.67;65.19
6218;BME280;3142;48.206;11.550;2023-01-30T13:31:18;95818.28;;;4.70;64.66
6218;BME280;3142;48.206;11.550;2023-01-30T13:33:47;95812.75;;;4.65;64.70
6218;BME280;3142;48.206;11.550;2023-01-30T13:36:17;95814.72;;;4.63;64.73